sensor_id;sensor_type;location;lat;lon;timestamp;P1;durP1;ratioP1;P2;durP2;ratioP2
16352;SDS011;8286;51.274;9.542;2024-03-25T00:01:22;8.47;;;2.57;;
16352;SDS011;8286;51.274;9.542;2024-03-25T00:03:49;4.87;;;2.37;;
16352;SDS011;8286;51.274;9.542;2024-03-25T00:06:15;9.33;;;3.07;;
16352;SDS011;8286;51.274;9.542;2024-03-25T00:08:41;6.87;;;2.50;;
16352;SDS011;8286;51.274;9.542;2024-03-25T00:11:07;5.83;;;2.40;;
16352;SDS011;8286;51.274;9.542;2024-03-25T00:13:35;8.30;;;2.53;;
16352;SDS011;8286;51.274;9.542;2024-03-25T00:16:00;5.23;;;2.50;;
16352;SDS011;8286;51.274;9.542;2024-03-25T00:18:27;6.47;;;1.80;;
16352;SDS011;8286;51.274;9.542;2024-03-25T00:20:52;4.43;;;2.03;;
16352;SDS011;8286;51.274;9.542;2024-03-25T00:23:19;3.93;;;1.67;;
16352;SDS011;8286;51.274;9.542;2024-03-25T00:25:45;9.07;;;2.93;;
16352;SDS011;8286;51.274;9.542;2024-03-25T00:28:12;9.33;;;2.33;;
16352;SDS011;8286;51.274;9.542;2024-03-25T00:30:39;3.40;;;2.17;;
16352;SDS011;8286;51.274;9.542;2024-03-25T00:33:06;5.90;;;2.30;;
16352;SDS011;8286;51.274;9.542;2024-03-25T00:35:31;5.03;;;2.10;;
16352;SDS011;8286;51.274;9.542;2024-03-25T00:37:58;4.40;;;1.70;;
16352;SDS011;8286;51.274;9.542;2024-03-25T00:40:23;7.07;;;1.70;;
16352;SDS011;8286;51.274;9.542;2024-03-25T00:42:50;6.20;;;2.03;;
16352;SDS011;8286;51.274;9.542;2024-03-25T00:45:16;5.80;;;2.53;;
16352;SDS011;8286;51.274;9.542;2024-03-25T00:47:43;3.20;;;2.80;;
16352;SDS011;8286;51.274;9.542;2024-03-25T00:50:09;8.43;;;2.67;;
16352;SDS011;8286;51.274;9.542;2024-03-25T00:52:35;3.83;;;2.17;;
16352;SDS011;8286;51.274;9.542;2024-03-25T00:55:01;4.63;;;3.00;;
16352;SDS011;8286;51.274;9.542;2024-03-25T00:57:28;6.50;;;2.03;;
16352;SDS011;8286;51.274;9.542;2024-03-25T00:59:54;4.03;;;2.23;;
16352;SDS011;8286;51.274;9.542;2024-03-25T01:02:21;4.50;;;2.00;;
16352;SDS011;8286;51.274;9.542;2024-03-25T01:04:48;3.33;;;2.00;;
16352;SDS011;8286;51.274;9.542;2024-03-25T01:07:15;4.10;;;1.90;;
16352;SDS011;8286;51.274;9.542;2024-03-25T01:09:40;4.20;;;1.77;;
16352;SDS011;8286;51.274;9.542;2024-03-25T01:12:07;4.60;;;2.00;;
16352;SDS011;8286;51.274;9.542;2024-03-25T01:14:32;1.60;;;1.50;;
16352;SDS011;8286;51.274;9.542;2024-03-25T01:16:59;5.27;;;1.57;;
16352;SDS011;8286;51.274;9.542;2024-03-25T01:19:24;3.37;;;1.63;;
16352;SDS011;8286;51.274;9.542;2024-03-25T01:21:52;3.40;;;1.70;;
16352;SDS011;8286;51.274;9.542;2024-03-25T01:24:18;2.70;;;1.67;;
16352;SDS011;8286;51.274;9.542;2024-03-25T01:26:45;1.63;;;1.50;;
16352;SDS011;8286;51.274;9.542;2024-03-25T01:29:11;2.00;;;1.70;;
16352;SDS011;8286;51.274;9.542;2024-03-25T01:31:37;5.03;;;1.60;;
16352;SDS011;8286;51.274;9.542;2024-03-25T01:34:03;3.13;;;1.47;;
16352;SDS011;8286;51.274;9.542;2024-03-25T01:36:30;8.97;;;2.10;;
16352;SDS011;8286;51.274;9.542;2024-03-25T01:38:58;1.80;;;1.70;;
16352;SDS011;8286;51.274;9.542;2024-03-25T01:41:24;6.20;;;1.47;;
16352;SDS011;8286;51.274;9.542;2024-03-25T01:43:50;5.70;;;1.83;;
16352;SDS011;8286;51.274;9.542;2024-03-25T01:46:16;4.57;;;1.80;;
16352;SDS011;8286;51.274;9.542;2024-03-25T01:48:43;6.23;;;1.80;;
16352;SDS011;8286;51.274;9.542;2024-03-25T01:51:10;2.33;;;1.70;;
16352;SDS011;8286;51.274;9.542;2024-03-25T01:53:36;3.63;;;1.77;;
16352;SDS011;8286;51.274;9.542;2024-03-25T01:56:04;4.07;;;1.83;;
16352;SDS011;8286;51.274;9.542;2024-03-25T01:58:30;8.53;;;2.97;;
16352;SDS011;8286;51.274;9.542;2024-03-25T02:00:56;4.23;;;2.07;;
16352;SDS011;8286;51.274;9.542;2024-03-25T02:03:24;6.20;;;2.93;;
16352;SDS011;8286;51.274;9.542;2024-03-25T02:05:52;8.67;;;3.07;;
16352;SDS011;8286;51.274;9.542;2024-03-25T02:08:21;4.00;;;2.60;;
16352;SDS011;8286;51.274;9.542;2024-03-25T02:10:47;6.17;;;2.37;;
16352;SDS011;8286;51.274;9.542;2024-03-25T02:13:14;9.60;;;2.30;;
16352;SDS011;8286;51.274;9.542;2024-03-25T02:15:41;7.40;;;2.80;;
16352;SDS011;8286;51.274;9.542;2024-03-25T02:18:06;6.90;;;3.03;;
16352;SDS011;8286;51.274;9.542;2024-03-25T02:20:33;9.43;;;2.40;;
16352;SDS011;8286;51.274;9.542;2024-03-25T02:22:58;10.07;;;2.87;;
16352;SDS011;8286;51.274;9.542;2024-03-25T02:25:25;8.17;;;2.60;;
16352;SDS011;8286;51.274;9.542;2024-03-25T02:27:52;6.03;;;2.50;;
16352;SDS011;8286;51.274;9.542;2024-03-25T02:30:19;5.33;;;2.27;;
16352;SDS011;8286;51.274;9.542;2024-03-25T02:32:44;12.27;;;2.17;;
16352;SDS011;8286;51.274;9.542;2024-03-25T02:35:12;8.37;;;2.10;;
16352;SDS011;8286;51.274;9.542;2024-03-25T02:37:39;5.73;;;2.27;;
16352;SDS011;8286;51.274;9.542;2024-03-25T02:40:08;8.07;;;2.00;;
16352;SDS011;8286;51.274;9.542;2024-03-25T02:42:34;5.70;;;2.00;;
16352;SDS011;8286;51.274;9.542;2024-03-25T02:45:03;4.53;;;2.37;;
16352;SDS011;8286;51.274;9.542;2024-03-25T02:47:29;4.00;;;2.13;;
16352;SDS011;8286;51.274;9.542;2024-03-25T02:49:55;5.97;;;2.33;;
16352;SDS011;8286;51.274;9.542;2024-03-25T02:52:21;4.30;;;2.63;;
16352;SDS011;8286;51.274;9.542;2024-03-25T02:54:47;6.43;;;2.70;;
16352;SDS011;8286;51.274;9.542;2024-03-25T02:57:13;7.90;;;3.93;;
16352;SDS011;8286;51.274;9.542;2024-03-25T02:59:39;5.80;;;2.93;;
16352;SDS011;8286;51.274;9.542;2024-03-25T03:02:06;7.53;;;2.30;;
16352;SDS011;8286;51.274;9.542;2024-03-25T03:04:32;6.77;;;2.53;;
16352;SDS011;8286;51.274;9.542;2024-03-25T03:06:58;2.67;;;1.70;;
16352;SDS011;8286;51.274;9.542;2024-03-25T03:09:24;4.83;;;1.97;;
16352;SDS011;8286;51.274;9.542;2024-03-25T03:11:50;10.77;;;2.93;;
16352;SDS011;8286;51.274;9.542;2024-03-25T03:14:17;4.87;;;2.13;;
16352;SDS011;8286;51.274;9.542;2024-03-25T03:16:42;9.77;;;2.80;;
16352;SDS011;8286;51.274;9.542;2024-03-25T03:19:10;8.17;;;3.00;;
16352;SDS011;8286;51.274;9.542;2024-03-25T03:21:35;11.17;;;3.20;;
16352;SDS011;8286;51.274;9.542;2024-03-25T03:24:02;12.93;;;4.27;;
16352;SDS011;8286;51.274;9.542;2024-03-25T03:26:28;11.93;;;4.57;;
16352;SDS011;8286;51.274;9.542;2024-03-25T03:28:55;7.40;;;3.10;;
16352;SDS011;8286;51.274;9.542;2024-03-25T03:31:20;11.37;;;3.20;;
16352;SDS011;8286;51.274;9.542;2024-03-25T03:33:47;5.60;;;2.43;;
16352;SDS011;8286;51.274;9.542;2024-03-25T03:36:14;4.33;;;2.60;;
16352;SDS011;8286;51.274;9.542;2024-03-25T03:38:41;8.93;;;3.80;;
16352;SDS011;8286;51.274;9.542;2024-03-25T03:41:07;11.17;;;4.67;;
16352;SDS011;8286;51.274;9.542;2024-03-25T03:43:33;5.80;;;2.97;;
16352;SDS011;8286;51.274;9.542;2024-03-25T03:45:59;3.87;;;2.60;;
16352;SDS011;8286;51.274;9.542;2024-03-25T03:48:25;6.43;;;3.47;;
16352;SDS011;8286;51.274;9.542;2024-03-25T03:50:51;7.40;;;3.20;;
16352;SDS011;8286;51.274;9.542;2024-03-25T03:53:19;12.03;;;4.93;;
16352;SDS011;8286;51.274;9.542;2024-03-25T03:55:52;12.30;;;4.30;;
16352;SDS011;8286;51.274;9.542;2024-03-25T03:58:19;11.00;;;3.70;;
16352;SDS011;8286;51.274;9.542;2024-03-25T04:00:45;7.90;;;3.33;;
16352;SDS011;8286;51.274;9.542;2024-03-25T04:03:11;7.90;;;3.40;;
16352;SDS011;8286;51.274;9.542;2024-03-25T04:05:37;7.60;;;3.33;;
16352;SDS011;8286;51.274;9.542;2024-03-25T04:08:03;9.43;;;3.80;;
16352;SDS011;8286;51.274;9.542;2024-03-25T04:10:31;8.33;;;4.67;;
16352;SDS011;8286;51.274;9.542;2024-03-25T04:12:57;8.57;;;3.57;;
16352;SDS011;8286;51.274;9.542;2024-03-25T04:15:23;10.07;;;3.23;;
16352;SDS011;8286;51.274;9.542;2024-03-25T04:17:51;4.40;;;2.33;;
16352;SDS011;8286;51.274;9.542;2024-03-25T04:20:16;5.70;;;3.00;;
16352;SDS011;8286;51.274;9.542;2024-03-25T04:22:43;9.33;;;2.47;;
16352;SDS011;8286;51.274;9.542;2024-03-25T04:25:09;2.47;;;1.60;;
16352;SDS011;8286;51.274;9.542;2024-03-25T04:27:38;5.57;;;2.10;;
16352;SDS011;8286;51.274;9.542;2024-03-25T04:30:04;7.00;;;2.63;;
16352;SDS011;8286;51.274;9.542;2024-03-25T04:32:32;4.10;;;2.10;;
16352;SDS011;8286;51.274;9.542;2024-03-25T04:34:58;7.63;;;2.13;;
16352;SDS011;8286;51.274;9.542;2024-03-25T04:37:24;4.30;;;1.97;;
16352;SDS011;8286;51.274;9.542;2024-03-25T04:39:50;2.20;;;1.70;;
16352;SDS011;8286;51.274;9.542;2024-03-25T04:42:16;4.23;;;2.20;;
16352;SDS011;8286;51.274;9.542;2024-03-25T04:44:42;2.37;;;2.10;;
16352;SDS011;8286;51.274;9.542;2024-03-25T04:47:08;7.03;;;1.90;;
16352;SDS011;8286;51.274;9.542;2024-03-25T04:49:34;8.37;;;2.17;;
16352;SDS011;8286;51.274;9.542;2024-03-25T04:51:59;3.17;;;1.87;;
16352;SDS011;8286;51.274;9.542;2024-03-25T04:54:25;5.70;;;2.13;;
16352;SDS011;8286;51.274;9.542;2024-03-25T04:56:50;7.27;;;2.47;;
16352;SDS011;8286;51.274;9.542;2024-03-25T04:59:16;8.37;;;2.30;;
16352;SDS011;8286;51.274;9.542;2024-03-25T05:01:43;4.53;;;2.30;;
16352;SDS011;8286;51.274;9.542;2024-03-25T05:04:08;4.87;;;2.40;;
16352;SDS011;8286;51.274;9.542;2024-03-25T05:06:34;7.20;;;2.40;;
16352;SDS011;8286;51.274;9.542;2024-03-25T05:09:00;6.63;;;2.80;;
16352;SDS011;8286;51.274;9.542;2024-03-25T05:11:25;6.67;;;2.97;;
16352;SDS011;8286;51.274;9.542;2024-03-25T05:13:51;8.77;;;3.27;;
16352;SDS011;8286;51.274;9.542;2024-03-25T05:16:16;7.90;;;3.53;;
16352;SDS011;8286;51.274;9.542;2024-03-25T05:18:43;16.07;;;5.13;;
16352;SDS011;8286;51.274;9.542;2024-03-25T05:21:09;10.30;;;4.80;;
16352;SDS011;8286;51.274;9.542;2024-03-25T05:23:35;11.40;;;4.90;;
16352;SDS011;8286;51.274;9.542;2024-03-25T05:26:00;12.33;;;4.53;;
16352;SDS011;8286;51.274;9.542;2024-03-25T05:28:26;12.17;;;5.10;;
16352;SDS011;8286;51.274;9.542;2024-03-25T05:30:51;8.70;;;4.53;;
16352;SDS011;8286;51.274;9.542;2024-03-25T05:33:17;10.17;;;4.30;;
16352;SDS011;8286;51.274;9.542;2024-03-25T05:35:44;11.23;;;4.83;;
16352;SDS011;8286;51.274;9.542;2024-03-25T05:38:10;9.10;;;4.10;;
16352;SDS011;8286;51.274;9.542;2024-03-25T05:40:35;9.20;;;3.93;;
16352;SDS011;8286;51.274;9.542;2024-03-25T05:43:02;9.37;;;4.20;;
16352;SDS011;8286;51.274;9.542;2024-03-25T05:45:27;10.60;;;3.83;;
16352;SDS011;8286;51.274;9.542;2024-03-25T05:47:53;6.43;;;3.47;;
16352;SDS011;8286;51.274;9.542;2024-03-25T05:50:19;8.27;;;3.00;;
16352;SDS011;8286;51.274;9.542;2024-03-25T05:52:45;6.30;;;3.17;;
16352;SDS011;8286;51.274;9.542;2024-03-25T05:55:11;9.83;;;2.27;;
16352;SDS011;8286;51.274;9.542;2024-03-25T05:57:37;10.17;;;2.83;;
16352;SDS011;8286;51.274;9.542;2024-03-25T06:00:03;6.03;;;2.80;;
16352;SDS011;8286;51.274;9.542;2024-03-25T06:02:28;8.43;;;3.40;;
16352;SDS011;8286;51.274;9.542;2024-03-25T06:04:54;9.83;;;3.10;;
16352;SDS011;8286;51.274;9.542;2024-03-25T06:07:20;11.43;;;4.03;;
16352;SDS011;8286;51.274;9.542;2024-03-25T06:09:47;5.07;;;2.93;;
16352;SDS011;8286;51.274;9.542;2024-03-25T06:12:13;9.03;;;3.37;;
16352;SDS011;8286;51.274;9.542;2024-03-25T06:14:39;7.03;;;3.10;;
16352;SDS011;8286;51.274;9.542;2024-03-25T06:17:04;3.60;;;2.57;;
16352;SDS011;8286;51.274;9.542;2024-03-25T06:19:30;6.47;;;3.50;;
16352;SDS011;8286;51.274;9.542;2024-03-25T06:21:55;7.87;;;2.97;;
16352;SDS011;8286;51.274;9.542;2024-03-25T06:24:21;8.27;;;3.10;;
16352;SDS011;8286;51.274;9.542;2024-03-25T06:26:48;10.50;;;2.73;;
16352;SDS011;8286;51.274;9.542;2024-03-25T06:29:14;9.57;;;3.27;;
16352;SDS011;8286;51.274;9.542;2024-03-25T06:31:39;10.03;;;3.33;;
16352;SDS011;8286;51.274;9.542;2024-03-25T06:34:23;11.10;;;3.43;;
16352;SDS011;8286;51.274;9.542;2024-03-25T06:36:49;8.77;;;3.40;;
16352;SDS011;8286;51.274;9.542;2024-03-25T06:39:14;7.03;;;2.90;;
16352;SDS011;8286;51.274;9.542;2024-03-25T06:41:40;4.93;;;2.87;;
16352;SDS011;8286;51.274;9.542;2024-03-25T06:44:07;5.37;;;2.90;;
16352;SDS011;8286;51.274;9.542;2024-03-25T06:46:33;15.10;;;3.50;;
16352;SDS011;8286;51.274;9.542;2024-03-25T06:48:59;11.53;;;2.90;;
16352;SDS011;8286;51.274;9.542;2024-03-25T06:51:25;9.50;;;3.30;;
16352;SDS011;8286;51.274;9.542;2024-03-25T06:53:51;6.63;;;2.87;;
16352;SDS011;8286;51.274;9.542;2024-03-25T06:56:16;2.57;;;2.37;;
16352;SDS011;8286;51.274;9.542;2024-03-25T06:58:42;3.70;;;2.60;;
16352;SDS011;8286;51.274;9.542;2024-03-25T07:01:10;7.13;;;3.10;;
16352;SDS011;8286;51.274;9.542;2024-03-25T07:03:36;3.27;;;2.23;;
16352;SDS011;8286;51.274;9.542;2024-03-25T07:06:01;4.17;;;2.23;;
16352;SDS011;8286;51.274;9.542;2024-03-25T07:08:27;6.20;;;2.67;;
16352;SDS011;8286;51.274;9.542;2024-03-25T07:10:53;5.77;;;2.70;;
16352;SDS011;8286;51.274;9.542;2024-03-25T07:13:19;5.23;;;2.53;;
16352;SDS011;8286;51.274;9.542;2024-03-25T07:15:45;9.63;;;2.73;;
16352;SDS011;8286;51.274;9.542;2024-03-25T07:18:12;7.83;;;3.13;;
16352;SDS011;8286;51.274;9.542;2024-03-25T07:20:38;5.27;;;2.77;;
16352;SDS011;8286;51.274;9.542;2024-03-25T07:23:04;6.87;;;2.60;;
16352;SDS011;8286;51.274;9.542;2024-03-25T07:25:30;8.27;;;2.50;;
16352;SDS011;8286;51.274;9.542;2024-03-25T07:27:55;5.03;;;2.87;;
16352;SDS011;8286;51.274;9.542;2024-03-25T07:30:21;6.03;;;2.97;;
16352;SDS011;8286;51.274;9.542;2024-03-25T07:32:47;7.30;;;2.60;;
16352;SDS011;8286;51.274;9.542;2024-03-25T07:35:14;5.17;;;3.03;;
16352;SDS011;8286;51.274;9.542;2024-03-25T07:37:39;6.77;;;2.73;;
16352;SDS011;8286;51.274;9.542;2024-03-25T07:40:06;5.80;;;2.50;;
16352;SDS011;8286;51.274;9.542;2024-03-25T07:42:32;4.77;;;2.53;;
16352;SDS011;8286;51.274;9.542;2024-03-25T07:44:58;8.27;;;3.00;;
16352;SDS011;8286;51.274;9.542;2024-03-25T07:47:23;8.40;;;2.63;;
16352;SDS011;8286;51.274;9.542;2024-03-25T07:49:49;8.37;;;2.67;;
16352;SDS011;8286;51.274;9.542;2024-03-25T07:52:16;9.57;;;2.63;;
16352;SDS011;8286;51.274;9.542;2024-03-25T07:54:41;6.37;;;3.10;;
16352;SDS011;8286;51.274;9.542;2024-03-25T07:57:07;7.50;;;3.23;;
16352;SDS011;8286;51.274;9.542;2024-03-25T07:59:32;4.57;;;2.63;;
16352;SDS011;8286;51.274;9.542;2024-03-25T08:01:58;8.53;;;2.77;;
16352;SDS011;8286;51.274;9.542;2024-03-25T08:04:24;5.43;;;2.57;;
16352;SDS011;8286;51.274;9.542;2024-03-25T08:06:49;7.37;;;2.40;;
16352;SDS011;8286;51.274;9.542;2024-03-25T08:09:16;7.23;;;2.57;;
16352;SDS011;8286;51.274;9.542;2024-03-25T08:11:42;3.53;;;2.23;;
16352;SDS011;8286;51.274;9.542;2024-03-25T08:14:07;6.07;;;3.23;;
16352;SDS011;8286;51.274;9.542;2024-03-25T08:16:33;4.83;;;2.63;;
16352;SDS011;8286;51.274;9.542;2024-03-25T08:18:59;9.37;;;2.80;;
16352;SDS011;8286;51.274;9.542;2024-03-25T08:21:24;6.97;;;2.30;;
16352;SDS011;8286;51.274;9.542;2024-03-25T08:23:50;9.13;;;2.80;;
16352;SDS011;8286;51.274;9.542;2024-03-25T08:26:17;5.27;;;2.10;;
16352;SDS011;8286;51.274;9.542;2024-03-25T08:28:43;3.40;;;2.10;;
16352;SDS011;8286;51.274;9.542;2024-03-25T08:31:09;6.33;;;2.13;;
16352;SDS011;8286;51.274;9.542;2024-03-25T08:33:34;9.20;;;2.23;;
16352;SDS011;8286;51.274;9.542;2024-03-25T08:36:00;5.43;;;2.40;;
16352;SDS011;8286;51.274;9.542;2024-03-25T08:38:26;3.80;;;2.30;;
16352;SDS011;8286;51.274;9.542;2024-03-25T08:40:51;3.03;;;2.60;;
16352;SDS011;8286;51.274;9.542;2024-03-25T08:43:18;6.17;;;2.40;;
16352;SDS011;8286;51.274;9.542;2024-03-25T08:45:44;5.00;;;2.47;;
16352;SDS011;8286;51.274;9.542;2024-03-25T08:48:09;8.73;;;2.63;;
16352;SDS011;8286;51.274;9.542;2024-03-25T08:50:35;3.90;;;2.60;;
16352;SDS011;8286;51.274;9.542;2024-03-25T08:53:01;2.70;;;2.37;;
16352;SDS011;8286;51.274;9.542;2024-03-25T08:55:28;6.60;;;2.53;;
16352;SDS011;8286;51.274;9.542;2024-03-25T08:57:54;6.10;;;2.97;;
16352;SDS011;8286;51.274;9.542;2024-03-25T09:00:21;9.13;;;2.77;;
16352;SDS011;8286;51.274;9.542;2024-03-25T09:02:46;6.60;;;2.07;;
16352;SDS011;8286;51.274;9.542;2024-03-25T09:05:12;9.33;;;2.60;;
16352;SDS011;8286;51.274;9.542;2024-03-25T09:07:38;5.57;;;2.67;;
16352;SDS011;8286;51.274;9.542;2024-03-25T09:10:04;2.37;;;2.17;;
16352;SDS011;8286;51.274;9.542;2024-03-25T09:12:48;5.53;;;2.30;;
16352;SDS011;8286;51.274;9.542;2024-03-25T09:15:14;6.40;;;2.37;;
16352;SDS011;8286;51.274;9.542;2024-03-25T09:17:41;8.03;;;2.17;;
16352;SDS011;8286;51.274;9.542;2024-03-25T09:20:07;7.40;;;2.30;;
16352;SDS011;8286;51.274;9.542;2024-03-25T09:22:34;8.03;;;2.33;;
16352;SDS011;8286;51.274;9.542;2024-03-25T09:24:59;6.97;;;2.63;;
16352;SDS011;8286;51.274;9.542;2024-03-25T09:27:25;3.60;;;2.60;;
16352;SDS011;8286;51.274;9.542;2024-03-25T09:29:51;5.70;;;2.63;;
16352;SDS011;8286;51.274;9.542;2024-03-25T09:32:17;5.53;;;2.90;;
16352;SDS011;8286;51.274;9.542;2024-03-25T09:34:44;6.13;;;2.57;;
16352;SDS011;8286;51.274;9.542;2024-03-25T09:37:09;4.47;;;2.30;;
16352;SDS011;8286;51.274;9.542;2024-03-25T09:39:35;4.40;;;2.23;;
16352;SDS011;8286;51.274;9.542;2024-03-25T09:42:01;7.17;;;2.50;;
16352;SDS011;8286;51.274;9.542;2024-03-25T09:44:28;4.03;;;2.37;;
16352;SDS011;8286;51.274;9.542;2024-03-25T09:46:55;5.63;;;2.27;;
16352;SDS011;8286;51.274;9.542;2024-03-25T09:49:21;4.57;;;2.67;;
16352;SDS011;8286;51.274;9.542;2024-03-25T09:51:48;10.97;;;3.07;;
16352;SDS011;8286;51.274;9.542;2024-03-25T09:54:14;11.03;;;2.30;;
16352;SDS011;8286;51.274;9.542;2024-03-25T09:56:40;12.63;;;2.33;;
16352;SDS011;8286;51.274;9.542;2024-03-25T09:59:06;15.13;;;2.87;;
16352;SDS011;8286;51.274;9.542;2024-03-25T10:01:32;7.07;;;2.83;;
16352;SDS011;8286;51.274;9.542;2024-03-25T10:03:57;5.27;;;2.23;;
16352;SDS011;8286;51.274;9.542;2024-03-25T10:06:23;6.23;;;2.40;;
16352;SDS011;8286;51.274;9.542;2024-03-25T10:08:52;6.63;;;2.13;;
16352;SDS011;8286;51.274;9.542;2024-03-25T10:11:19;8.13;;;2.27;;
16352;SDS011;8286;51.274;9.542;2024-03-25T10:13:44;3.53;;;2.07;;
16352;SDS011;8286;51.274;9.542;2024-03-25T10:16:10;7.00;;;2.33;;
16352;SDS011;8286;51.274;9.542;2024-03-25T10:18:36;5.00;;;2.10;;
16352;SDS011;8286;51.274;9.542;2024-03-25T10:21:01;11.17;;;2.57;;
16352;SDS011;8286;51.274;9.542;2024-03-25T10:23:27;7.40;;;2.20;;
16352;SDS011;8286;51.274;9.542;2024-03-25T10:25:54;9.47;;;3.37;;
16352;SDS011;8286;51.274;9.542;2024-03-25T10:28:20;4.87;;;2.13;;
16352;SDS011;8286;51.274;9.542;2024-03-25T10:30:46;8.00;;;2.27;;
16352;SDS011;8286;51.274;9.542;2024-03-25T10:33:12;2.10;;;1.90;;
16352;SDS011;8286;51.274;9.542;2024-03-25T10:35:38;5.70;;;2.07;;
16352;SDS011;8286;51.274;9.542;2024-03-25T10:38:05;6.20;;;2.37;;
16352;SDS011;8286;51.274;9.542;2024-03-25T10:40:31;6.53;;;2.03;;
16352;SDS011;8286;51.274;9.542;2024-03-25T10:43:02;6.13;;;1.97;;
16352;SDS011;8286;51.274;9.542;2024-03-25T10:45:31;4.07;;;2.00;;
16352;SDS011;8286;51.274;9.542;2024-03-25T10:47:57;2.43;;;1.93;;
16352;SDS011;8286;51.274;9.542;2024-03-25T10:50:28;7.33;;;1.93;;
16352;SDS011;8286;51.274;9.542;2024-03-25T10:52:54;7.20;;;1.67;;
16352;SDS011;8286;51.274;9.542;2024-03-25T10:55:20;7.40;;;1.87;;
16352;SDS011;8286;51.274;9.542;2024-03-25T10:57:46;7.23;;;2.17;;
16352;SDS011;8286;51.274;9.542;2024-03-25T11:00:15;5.50;;;1.70;;
16352;SDS011;8286;51.274;9.542;2024-03-25T11:02:41;4.77;;;2.10;;
16352;SDS011;8286;51.274;9.542;2024-03-25T11:05:07;7.70;;;2.17;;
16352;SDS011;8286;51.274;9.542;2024-03-25T11:07:33;8.10;;;2.57;;
16352;SDS011;8286;51.274;9.542;2024-03-25T11:10:02;7.17;;;1.83;;
16352;SDS011;8286;51.274;9.542;2024-03-25T11:12:32;4.13;;;2.33;;
16352;SDS011;8286;51.274;9.542;2024-03-25T11:14:57;7.33;;;2.37;;
16352;SDS011;8286;51.274;9.542;2024-03-25T11:17:27;4.53;;;1.90;;
16352;SDS011;8286;51.274;9.542;2024-03-25T11:19:53;5.10;;;2.33;;
16352;SDS011;8286;51.274;9.542;2024-03-25T11:22:23;5.63;;;1.90;;
16352;SDS011;8286;51.274;9.542;2024-03-25T11:24:50;3.30;;;1.80;;
16352;SDS011;8286;51.274;9.542;2024-03-25T11:27:20;6.00;;;1.90;;
16352;SDS011;8286;51.274;9.542;2024-03-25T11:29:47;4.37;;;1.80;;
16352;SDS011;8286;51.274;9.542;2024-03-25T11:32:12;4.10;;;1.77;;
16352;SDS011;8286;51.274;9.542;2024-03-25T11:34:49;5.90;;;1.80;;
16352;SDS011;8286;51.274;9.542;2024-03-25T11:37:15;3.53;;;1.53;;
16352;SDS011;8286;51.274;9.542;2024-03-25T11:39:40;6.17;;;2.33;;
16352;SDS011;8286;51.274;9.542;2024-03-25T11:42:07;3.90;;;1.40;;
16352;SDS011;8286;51.274;9.542;2024-03-25T11:44:35;4.97;;;1.60;;
16352;SDS011;8286;51.274;9.542;2024-03-25T11:47:01;2.43;;;1.70;;
16352;SDS011;8286;51.274;9.542;2024-03-25T11:49:27;2.63;;;1.80;;
16352;SDS011;8286;51.274;9.542;2024-03-25T11:51:54;6.97;;;1.80;;
16352;SDS011;8286;51.274;9.542;2024-03-25T11:54:19;4.10;;;2.00;;
16352;SDS011;8286;51.274;9.542;2024-03-25T11:56:45;4.90;;;1.50;;
16352;SDS011;8286;51.274;9.542;2024-03-25T11:59:10;3.43;;;1.60;;
16352;SDS011;8286;51.274;9.542;2024-03-25T12:01:36;3.67;;;1.80;;
16352;SDS011;8286;51.274;9.542;2024-03-25T12:04:09;4.57;;;1.30;;
16352;SDS011;8286;51.274;9.542;2024-03-25T12:06:35;7.47;;;1.50;;
16352;SDS011;8286;51.274;9.542;2024-03-25T12:09:02;2.87;;;1.57;;
16352;SDS011;8286;51.274;9.542;2024-03-25T12:11:46;4.93;;;1.87;;
16352;SDS011;8286;51.274;9.542;2024-03-25T12:14:13;3.87;;;1.40;;
16352;SDS011;8286;51.274;9.542;2024-03-25T12:16:38;4.03;;;1.53;;
16352;SDS011;8286;51.274;9.542;2024-03-25T12:19:05;6.70;;;1.80;;
16352;SDS011;8286;51.274;9.542;2024-03-25T12:21:30;2.47;;;1.53;;
16352;SDS011;8286;51.274;9.542;2024-03-25T12:23:56;2.13;;;1.33;;
16352;SDS011;8286;51.274;9.542;2024-03-25T12:26:23;3.03;;;1.43;;
16352;SDS011;8286;51.274;9.542;2024-03-25T12:28:49;7.07;;;1.50;;
16352;SDS011;8286;51.274;9.542;2024-03-25T12:31:15;5.07;;;1.80;;
16352;SDS011;8286;51.274;9.542;2024-03-25T12:33:41;2.53;;;1.42;;
16352;SDS011;8286;51.274;9.542;2024-03-25T12:36:07;2.70;;;1.33;;
16352;SDS011;8286;51.274;9.542;2024-03-25T12:38:33;8.02;;;1.45;;
16352;SDS011;8286;51.274;9.542;2024-03-25T12:41:03;5.63;;;1.70;;
16352;SDS011;8286;51.274;9.542;2024-03-25T12:43:32;6.07;;;1.77;;
16352;SDS011;8286;51.274;9.542;2024-03-25T12:45:58;4.37;;;1.07;;
16352;SDS011;8286;51.274;9.542;2024-03-25T12:48:23;1.70;;;1.47;;
16352;SDS011;8286;51.274;9.542;2024-03-25T12:50:49;2.77;;;1.57;;
16352;SDS011;8286;51.274;9.542;2024-03-25T12:53:16;3.03;;;1.43;;
16352;SDS011;8286;51.274;9.542;2024-03-25T12:55:42;4.10;;;1.60;;
16352;SDS011;8286;51.274;9.542;2024-03-25T12:58:08;4.30;;;1.63;;
16352;SDS011;8286;51.274;9.542;2024-03-25T13:00:35;6.53;;;1.30;;
16352;SDS011;8286;51.274;9.542;2024-03-25T13:03:01;5.50;;;2.23;;
16352;SDS011;8286;51.274;9.542;2024-03-25T13:05:27;4.80;;;1.80;;
16352;SDS011;8286;51.274;9.542;2024-03-25T13:07:52;2.80;;;1.40;;
16352;SDS011;8286;51.274;9.542;2024-03-25T13:10:18;4.90;;;1.47;;
16352;SDS011;8286;51.274;9.542;2024-03-25T13:12:43;4.30;;;1.43;;
16352;SDS011;8286;51.274;9.542;2024-03-25T13:15:09;2.63;;;1.30;;
16352;SDS011;8286;51.274;9.542;2024-03-25T13:17:36;5.20;;;1.83;;
16352;SDS011;8286;51.274;9.542;2024-03-25T13:20:02;3.83;;;1.60;;
16352;SDS011;8286;51.274;9.542;2024-03-25T13:22:28;5.33;;;2.00;;
16352;SDS011;8286;51.274;9.542;2024-03-25T13:24:53;2.67;;;1.37;;
16352;SDS011;8286;51.274;9.542;2024-03-25T13:27:19;4.13;;;1.37;;
16352;SDS011;8286;51.274;9.542;2024-03-25T13:29:45;3.90;;;1.63;;
16352;SDS011;8286;51.274;9.542;2024-03-25T13:32:10;4.27;;;1.60;;
16352;SDS011;8286;51.274;9.542;2024-03-25T13:34:37;5.73;;;1.70;;
16352;SDS011;8286;51.274;9.542;2024-03-25T13:37:03;2.92;;;1.77;;
16352;SDS011;8286;51.274;9.542;2024-03-25T13:39:29;2.97;;;1.43;;
16352;SDS011;8286;51.274;9.542;2024-03-25T13:41:54;4.57;;;1.40;;
16352;SDS011;8286;51.274;9.542;2024-03-25T13:44:20;3.07;;;1.57;;
16352;SDS011;8286;51.274;9.542;2024-03-25T13:46:45;5.23;;;1.70;;
16352;SDS011;8286;51.274;9.542;2024-03-25T13:49:11;4.33;;;2.20;;
16352;SDS011;8286;51.274;9.542;2024-03-25T13:51:38;3.27;;;1.70;;
16352;SDS011;8286;51.274;9.542;2024-03-25T13:54:04;3.20;;;1.43;;
16352;SDS011;8286;51.274;9.542;2024-03-25T13:56:29;3.37;;;1.30;;
16352;SDS011;8286;51.274;9.542;2024-03-25T13:58:55;4.13;;;1.33;;
16352;SDS011;8286;51.274;9.542;2024-03-25T14:01:20;5.60;;;1.63;;
16352;SDS011;8286;51.274;9.542;2024-03-25T14:03:46;1.97;;;1.40;;
16352;SDS011;8286;51.274;9.542;2024-03-25T14:06:12;5.30;;;2.00;;
16352;SDS011;8286;51.274;9.542;2024-03-25T14:08:39;6.00;;;1.60;;
16352;SDS011;8286;51.274;9.542;2024-03-25T14:11:04;3.77;;;1.40;;
16352;SDS011;8286;51.274;9.542;2024-03-25T14:13:30;5.40;;;2.07;;
16352;SDS011;8286;51.274;9.542;2024-03-25T14:15:55;2.27;;;1.50;;
16352;SDS011;8286;51.274;9.542;2024-03-25T14:18:21;1.53;;;1.43;;
16352;SDS011;8286;51.274;9.542;2024-03-25T14:20:47;4.67;;;1.73;;
16352;SDS011;8286;51.274;9.542;2024-03-25T14:23:12;3.07;;;1.40;;
16352;SDS011;8286;51.274;9.542;2024-03-25T14:25:39;3.67;;;1.50;;
16352;SDS011;8286;51.274;9.542;2024-03-25T14:28:05;1.97;;;1.63;;
16352;SDS011;8286;51.274;9.542;2024-03-25T14:30:31;4.53;;;1.50;;
16352;SDS011;8286;51.274;9.542;2024-03-25T14:32:56;5.20;;;1.50;;
16352;SDS011;8286;51.274;9.542;2024-03-25T14:35:22;2.60;;;1.70;;
16352;SDS011;8286;51.274;9.542;2024-03-25T14:37:48;2.70;;;1.30;;
16352;SDS011;8286;51.274;9.542;2024-03-25T14:40:14;2.73;;;1.20;;
16352;SDS011;8286;51.274;9.542;2024-03-25T14:42:41;6.63;;;1.37;;
16352;SDS011;8286;51.274;9.542;2024-03-25T14:45:07;1.77;;;1.03;;
16352;SDS011;8286;51.274;9.542;2024-03-25T14:47:33;2.73;;;1.10;;
16352;SDS011;8286;51.274;9.542;2024-03-25T14:49:58;2.43;;;1.30;;
16352;SDS011;8286;51.274;9.542;2024-03-25T14:52:24;2.30;;;1.10;;
16352;SDS011;8286;51.274;9.542;2024-03-25T14:54:50;6.47;;;1.20;;